Time;durP1;ratioP1;P1;durP2;ratioP2;P2;SDS_P1;SDS_P2;PMS_P1;PMS_P2;Temp;Humidity;BMP_temperature;BMP_pressure;BME280_temperature;BME280_humidity;BME280_pressure;Samples;Min_cycle;Max_cycle;Signal;HPM_P1;HPM_P2
2023/10/30 00:01:56;;;;;;;9.87;1.50;;;11.90;99.90;;;;;;5076334;28;20185;-78
2023/10/30 00:04:22;;;;;;;8.03;1.57;;;11.90;99.90;;;;;;5075274;28;20163;-77
2023/10/30 00:06:48;;;;;;;9.10;1.87;;;11.90;99.90;;;;;;5075409;28;20174;-77
2023/10/30 00:09:15;;;;;;;7.80;2.10;;;11.90;99.90;;;;;;5075421;28;20592;-77
2023/10/30 00:11:41;;;;;;;12.77;1.90;;;11.90;99.90;;;;;;5074916;28;20175;-77
2023/10/30 00:14:07;;;;;;;8.53;1.80;;;11.80;99.90;;;;;;5074771;28;20603;-76
2023/10/30 00:16:33;;;;;;;9.90;1.70;;;11.80;99.90;;;;;;5074928;28;20570;-78
2023/10/30 00:19:02;;;;;;;9.37;2.30;;;11.80;99.90;;;;;;5074886;28;20183;-78
2023/10/30 00:21:28;;;;;;;10.70;2.17;;;11.80;99.90;;;;;;5075185;28;20167;-77
2023/10/30 00:23:53;;;;;;;5.90;1.57;;;11.80;99.90;;;;;;5074011;28;20174;-78
2023/10/30 00:26:19;;;;;;;10.33;1.87;;;11.70;99.90;;;;;;5074905;28;20191;-78
2023/10/30 00:28:44;;;;;;;6.70;1.67;;;11.70;99.90;;;;;;5073934;28;20677;-77
2023/10/30 00:31:10;;;;;;;10.67;2.63;;;11.70;99.90;;;;;;5074603;28;20180;-77
2023/10/30 00:33:36;;;;;;;8.50;2.10;;;11.70;99.90;;;;;;5074516;28;20635;-77
2023/10/30 00:36:01;;;;;;;9.47;1.63;;;11.60;99.90;;;;;;5072586;28;20229;-77
2023/10/30 00:38:27;;;;;;;7.73;1.87;;;11.70;99.90;;;;;;5074745;28;20175;-77
2023/10/30 00:40:53;;;;;;;7.43;1.53;;;11.70;99.90;;;;;;5077917;28;20200;-77
2023/10/30 00:43:19;;;;;;;11.87;1.80;;;11.60;99.90;;;;;;5082184;28;20174;-77
2023/10/30 00:45:45;;;;;;;8.70;2.20;;;11.60;99.90;;;;;;5087100;28;20179;-77
2023/10/30 00:48:10;;;;;;;8.53;1.93;;;11.70;99.90;;;;;;5085678;28;20171;-77
2023/10/30 00:50:36;;;;;;;8.17;2.17;;;11.60;99.90;;;;;;5079601;28;20182;-78
2023/10/30 00:53:01;;;;;;;9.53;1.77;;;11.60;99.90;;;;;;5078431;28;20190;-78
2023/10/30 00:55:27;;;;;;;7.40;2.10;;;11.70;99.90;;;;;;5079629;28;20198;-77
2023/10/30 00:57:52;;;;;;;6.73;2.03;;;11.60;99.90;;;;;;5078764;28;20549;-78
2023/10/30 01:00:18;;;;;;;11.50;2.07;;;11.70;99.90;;;;;;5078594;28;20651;-77
2023/10/30 01:02:44;;;;;;;9.67;1.90;;;11.70;99.90;;;;;;5078791;28;20254;-77
2023/10/30 01:05:10;;;;;;;11.50;2.40;;;11.60;99.90;;;;;;5078543;28;20194;-78
2023/10/30 01:07:36;;;;;;;6.50;1.67;;;11.60;99.90;;;;;;5076203;28;20257;-77
2023/10/30 01:10:02;;;;;;;8.07;1.57;;;11.60;99.90;;;;;;5077836;28;20576;-77
2023/10/30 01:12:27;;;;;;;8.17;1.97;;;11.60;99.90;;;;;;5076322;28;20210;-77
2023/10/30 01:14:53;;;;;;;6.27;1.87;;;11.60;99.90;;;;;;5077620;28;20653;-78
2023/10/30 01:17:18;;;;;;;10.20;2.00;;;11.60;99.90;;;;;;5077134;28;20214;-76
2023/10/30 01:19:44;;;;;;;7.73;1.37;;;11.60;99.90;;;;;;5077189;28;20202;-78
2023/10/30 01:22:09;;;;;;;10.37;2.23;;;11.60;99.90;;;;;;5077302;28;20179;-78
2023/10/30 01:24:35;;;;;;;7.83;1.63;;;11.60;99.90;;;;;;5076900;28;20277;-77
2023/10/30 01:27:01;;;;;;;6.67;1.60;;;11.60;99.90;;;;;;5077106;28;20186;-77
2023/10/30 01:29:26;;;;;;;7.03;2.00;;;11.60;99.90;;;;;;5075137;28;20293;-77
2023/10/30 01:31:53;;;;;;;6.93;1.60;;;11.60;99.90;;;;;;5076816;28;20208;-77
2023/10/30 01:34:18;;;;;;;6.50;1.70;;;11.60;99.90;;;;;;5077224;28;20175;-77
2023/10/30 01:36:44;;;;;;;7.50;1.70;;;11.50;99.90;;;;;;5076271;28;20179;-78
2023/10/30 01:39:09;;;;;;;7.20;1.70;;;11.60;99.90;;;;;;5076815;28;20245;-77
2023/10/30 01:41:35;;;;;;;15.20;1.87;;;11.60;99.90;;;;;;5076931;28;20175;-77
2023/10/30 01:44:00;;;;;;;7.73;1.80;;;11.50;99.90;;;;;;5077763;28;20171;-79
2023/10/30 01:46:26;;;;;;;12.93;2.67;;;11.60;99.90;;;;;;5076796;28;20610;-77
2023/10/30 01:48:52;;;;;;;11.33;2.33;;;11.50;99.90;;;;;;5076855;28;20194;-77
2023/10/30 01:51:19;;;;;;;7.17;1.63;;;11.50;99.90;;;;;;5076826;28;20183;-77
2023/10/30 01:53:46;;;;;;;11.77;2.07;;;11.50;99.90;;;;;;5076493;28;20175;-77
2023/10/30 01:56:12;;;;;;;7.70;1.63;;;11.50;99.90;;;;;;5076150;28;20197;-77
2023/10/30 01:58:37;;;;;;;12.13;2.43;;;11.50;99.90;;;;;;5076706;28;20578;-77
2023/10/30 02:01:03;;;;;;;11.10;1.90;;;11.50;99.90;;;;;;5075630;28;20183;-76
2023/10/30 02:03:29;;;;;;;7.80;2.23;;;11.50;99.90;;;;;;5076104;28;20215;-77
2023/10/30 02:05:55;;;;;;;12.40;2.37;;;11.50;99.90;;;;;;5075424;28;20197;-76
2023/10/30 02:08:21;;;;;;;12.20;2.13;;;11.50;99.90;;;;;;5076318;28;20642;-77
2023/10/30 02:10:47;;;;;;;10.00;1.93;;;11.50;99.90;;;;;;5074571;28;20197;-78
2023/10/30 02:13:12;;;;;;;10.30;1.83;;;11.50;99.90;;;;;;5076082;28;20638;-77
2023/10/30 02:15:38;;;;;;;11.30;1.93;;;11.50;99.90;;;;;;5075886;28;20194;-77
2023/10/30 02:18:04;;;;;;;12.43;3.00;;;11.50;99.90;;;;;;5076195;28;20604;-78
2023/10/30 02:20:30;;;;;;;7.60;1.70;;;11.50;99.90;;;;;;5076604;28;20599;-77
2023/10/30 02:22:55;;;;;;;9.33;2.03;;;11.50;99.90;;;;;;5076756;28;20190;-77
2023/10/30 02:25:25;;;;;;;8.20;2.03;;;11.50;99.90;;;;;;5077017;28;20183;-77
2023/10/30 02:27:51;;;;;;;11.30;2.63;;;11.40;99.90;;;;;;5075086;28;20207;-77
2023/10/30 02:30:17;;;;;;;7.17;2.00;;;11.50;99.90;;;;;;5076717;28;20278;-78
2023/10/30 02:32:44;;;;;;;9.53;1.93;;;11.50;99.90;;;;;;5076347;28;20203;-78
2023/10/30 02:35:13;;;;;;;6.50;1.73;;;11.50;99.90;;;;;;5076225;28;20294;-78
2023/10/30 02:37:40;;;;;;;10.77;2.03;;;11.50;99.90;;;;;;5076623;28;20163;-77
2023/10/30 02:40:06;;;;;;;10.97;2.30;;;11.40;99.90;;;;;;5076468;28;20210;-77
2023/10/30 02:42:32;;;;;;;7.60;1.87;;;11.40;99.90;;;;;;5077190;28;20205;-77
2023/10/30 02:44:58;;;;;;;9.27;1.80;;;11.40;99.90;;;;;;5078212;28;20186;-77
2023/10/30 02:47:24;;;;;;;8.33;1.90;;;11.40;99.90;;;;;;5076801;28;20621;-77
2023/10/30 02:49:50;;;;;;;13.70;2.10;;;11.40;99.90;;;;;;5077056;28;20193;-77
2023/10/30 02:52:16;;;;;;;10.47;2.27;;;11.40;99.90;;;;;;5076878;28;20171;-77
2023/10/30 02:54:41;;;;;;;7.53;2.10;;;11.40;99.90;;;;;;5076456;28;20216;-78
2023/10/30 02:57:07;;;;;;;15.07;2.33;;;11.40;99.90;;;;;;5075784;28;20198;-78
2023/10/30 02:59:32;;;;;;;10.67;2.23;;;11.40;99.90;;;;;;5076270;28;20240;-77
2023/10/30 03:02:02;;;;;;;9.37;1.83;;;11.40;99.90;;;;;;5077955;28;20217;-76
2023/10/30 03:04:28;;;;;;;7.87;1.80;;;11.40;99.90;;;;;;5077492;28;20163;-77
2023/10/30 03:06:54;;;;;;;8.93;2.30;;;11.40;99.90;;;;;;5075572;28;20243;-76
2023/10/30 03:09:19;;;;;;;8.60;1.90;;;11.40;99.90;;;;;;5073666;28;20171;-77
2023/10/30 03:11:45;;;;;;;8.23;1.93;;;11.30;99.90;;;;;;5075602;28;20170;-77
2023/10/30 03:14:11;;;;;;;11.27;2.33;;;11.30;99.90;;;;;;5073371;28;20638;-77
2023/10/30 03:16:37;;;;;;;18.53;2.17;;;11.30;99.90;;;;;;5074808;28;20264;-77
2023/10/30 03:19:03;;;;;;;11.97;1.83;;;11.30;99.90;;;;;;5075422;28;20202;-77
2023/10/30 03:21:28;;;;;;;9.30;2.00;;;11.30;99.90;;;;;;5075019;28;20599;-78
2023/10/30 03:23:54;;;;;;;7.17;2.10;;;11.30;99.90;;;;;;5075821;28;20238;-77
2023/10/30 03:26:19;;;;;;;7.23;2.20;;;11.30;99.90;;;;;;5075708;28;20269;-77
2023/10/30 03:28:45;;;;;;;11.67;2.30;;;11.20;99.90;;;;;;5075465;28;20289;-77
2023/10/30 03:31:10;;;;;;;13.03;2.13;;;11.20;99.90;;;;;;5075899;28;20156;-79
2023/10/30 03:33:36;;;;;;;9.60;1.77;;;11.30;99.90;;;;;;5075041;28;20213;-77
2023/10/30 03:36:03;;;;;;;13.33;2.37;;;11.30;99.90;;;;;;5074733;28;20274;-77
2023/10/30 03:38:28;;;;;;;9.63;1.70;;;11.30;99.90;;;;;;5074949;28;20172;-77
2023/10/30 03:40:54;;;;;;;8.83;1.67;;;11.30;99.90;;;;;;5074478;28;20612;-77
2023/10/30 03:43:19;;;;;;;16.10;2.20;;;11.20;99.90;;;;;;5074984;28;20167;-77
2023/10/30 03:45:45;;;;;;;7.53;2.17;;;11.20;99.90;;;;;;5072837;28;20227;-77
2023/10/30 03:48:11;;;;;;;13.20;2.13;;;11.30;99.90;;;;;;5074214;28;20190;-77
2023/10/30 03:50:37;;;;;;;8.83;1.73;;;11.20;99.90;;;;;;5075200;28;20175;-76
2023/10/30 03:53:02;;;;;;;11.30;2.00;;;11.30;99.90;;;;;;5074706;28;20175;-77
2023/10/30 03:55:28;;;;;;;7.47;1.77;;;11.20;99.90;;;;;;5075062;28;20210;-77
2023/10/30 03:57:53;;;;;;;13.60;2.00;;;11.20;99.90;;;;;;5074676;28;20171;-77
2023/10/30 04:00:19;;;;;;;11.73;1.77;;;11.20;99.90;;;;;;5075309;28;20270;-78
2023/10/30 04:02:45;;;;;;;7.87;1.93;;;11.20;99.90;;;;;;5073016;28;20265;-77
2023/10/30 04:05:11;;;;;;;7.90;1.70;;;11.20;99.90;;;;;;5075905;28;20227;-77
2023/10/30 04:07:36;;;;;;;7.30;1.73;;;11.20;99.90;;;;;;5073236;28;20232;-77
2023/10/30 04:10:02;;;;;;;6.33;1.93;;;11.20;99.90;;;;;;5075201;28;20752;-77
2023/10/30 04:12:28;;;;;;;10.50;2.13;;;11.20;99.90;;;;;;5074557;28;20592;-77
2023/10/30 04:14:53;;;;;;;13.40;2.10;;;11.20;99.90;;;;;;5076477;28;20198;-77
2023/10/30 04:17:19;;;;;;;8.20;2.70;;;11.20;99.90;;;;;;5078605;28;20253;-77
2023/10/30 04:19:45;;;;;;;11.13;2.20;;;11.20;99.90;;;;;;5078631;28;20623;-77
2023/10/30 04:22:10;;;;;;;11.77;2.50;;;11.20;99.90;;;;;;5078061;28;20653;-78
2023/10/30 04:24:36;;;;;;;10.80;2.33;;;11.20;99.90;;;;;;5077873;28;20266;-77
2023/10/30 04:27:01;;;;;;;11.43;2.27;;;11.20;99.90;;;;;;5078206;28;20651;-77
2023/10/30 04:29:27;;;;;;;7.23;2.00;;;11.20;99.90;;;;;;5079471;28;20220;-78
2023/10/30 04:31:53;;;;;;;10.37;2.10;;;11.20;99.90;;;;;;5079050;28;20235;-77
2023/10/30 04:34:19;;;;;;;5.40;1.97;;;11.20;99.90;;;;;;5078227;28;20181;-77
2023/10/30 04:36:45;;;;;;;6.43;2.30;;;11.10;99.90;;;;;;5078031;28;20255;-77
2023/10/30 04:39:11;;;;;;;6.90;1.80;;;11.20;99.90;;;;;;5077587;28;20230;-77
2023/10/30 04:41:36;;;;;;;8.93;1.70;;;11.20;99.90;;;;;;5078157;28;20263;-77
2023/10/30 04:44:02;;;;;;;12.13;2.20;;;11.20;99.90;;;;;;5075861;28;20171;-77
2023/10/30 04:46:28;;;;;;;7.97;2.30;;;11.20;99.90;;;;;;5077194;28;20592;-77
2023/10/30 04:48:53;;;;;;;10.10;1.93;;;11.20;99.90;;;;;;5076734;28;20210;-76
2023/10/30 04:51:19;;;;;;;10.17;2.10;;;11.20;99.90;;;;;;5077417;28;20172;-77
2023/10/30 04:53:45;;;;;;;11.57;2.23;;;11.20;99.90;;;;;;5077420;28;20203;-77
2023/10/30 04:56:10;;;;;;;10.73;2.17;;;11.20;99.90;;;;;;5077471;28;20260;-77
2023/10/30 04:58:36;;;;;;;8.33;2.10;;;11.20;99.90;;;;;;5077222;28;20213;-77
2023/10/30 05:01:09;;;;;;;8.77;1.80;;;11.20;99.90;;;;;;5077401;28;20171;-77
2023/10/30 05:03:36;;;;;;;8.67;1.80;;;11.20;99.90;;;;;;5077631;28;20167;-77
2023/10/30 05:06:02;;;;;;;8.53;1.97;;;11.20;99.90;;;;;;5077506;28;20198;-77
2023/10/30 05:08:28;;;;;;;8.77;2.13;;;11.20;99.90;;;;;;5077915;28;20206;-78
2023/10/30 05:10:53;;;;;;;11.13;2.70;;;11.10;99.90;;;;;;5077867;28;20224;-77
2023/10/30 05:13:20;;;;;;;9.60;2.40;;;11.10;99.90;;;;;;5077720;28;20651;-77
2023/10/30 05:15:46;;;;;;;8.83;2.10;;;11.10;99.90;;;;;;5076955;28;20282;-77
2023/10/30 05:18:12;;;;;;;10.43;2.00;;;11.10;99.90;;;;;;5078878;28;20222;-77
2023/10/30 05:20:37;;;;;;;10.67;2.10;;;11.10;99.90;;;;;;5076918;28;20654;-77
2023/10/30 05:23:03;;;;;;;10.07;1.80;;;11.10;99.90;;;;;;5077103;28;20199;-77
2023/10/30 05:25:28;;;;;;;11.87;2.37;;;11.10;99.90;;;;;;5075784;28;20554;-77
2023/10/30 05:27:54;;;;;;;9.67;2.10;;;11.10;99.90;;;;;;5076158;28;20167;-78
2023/10/30 05:30:19;;;;;;;14.20;2.10;;;11.10;99.90;;;;;;5076040;28;20179;-77
2023/10/30 05:32:45;;;;;;;10.13;1.97;;;11.10;99.90;;;;;;5075962;28;20175;-76
2023/10/30 05:35:11;;;;;;;7.80;2.00;;;11.00;99.90;;;;;;5076250;28;20575;-78
2023/10/30 05:37:36;;;;;;;9.30;1.90;;;11.00;99.90;;;;;;5076853;28;20536;-78
2023/10/30 05:40:02;;;;;;;8.93;1.80;;;11.00;99.90;;;;;;5077557;28;20235;-77
2023/10/30 05:42:28;;;;;;;10.57;2.03;;;11.00;99.90;;;;;;5076864;28;20224;-78
2023/10/30 05:44:54;;;;;;;14.73;1.93;;;11.10;99.90;;;;;;5076334;28;20183;-79
2023/10/30 05:47:19;;;;;;;7.17;1.83;;;11.00;99.90;;;;;;5076463;28;20242;-79
2023/10/30 05:49:45;;;;;;;9.07;2.27;;;11.00;99.90;;;;;;5076354;28;20210;-77
2023/10/30 05:52:11;;;;;;;9.83;1.73;;;11.00;99.90;;;;;;5076151;28;20182;-78
2023/10/30 05:54:37;;;;;;;11.10;2.33;;;11.00;99.90;;;;;;5076029;28;20190;-78
2023/10/30 05:57:02;;;;;;;7.33;1.50;;;11.10;99.90;;;;;;5075768;28;20631;-78
2023/10/30 05:59:28;;;;;;;7.13;2.03;;;11.00;99.90;;;;;;5075811;28;20290;-78
2023/10/30 06:01:53;;;;;;;10.87;1.90;;;11.10;99.90;;;;;;5075566;28;20167;-79
2023/10/30 06:04:19;;;;;;;8.80;1.90;;;11.10;99.90;;;;;;5075762;28;20167;-78
2023/10/30 06:06:45;;;;;;;11.53;2.50;;;11.10;99.90;;;;;;5075606;28;20167;-77
2023/10/30 06:09:10;;;;;;;9.00;1.73;;;11.10;99.90;;;;;;5075390;28;20167;-78
2023/10/30 06:11:36;;;;;;;8.63;2.07;;;11.10;99.90;;;;;;5075801;28;20197;-79
2023/10/30 06:14:01;;;;;;;10.97;2.07;;;11.10;99.90;;;;;;5074971;28;20175;-78
2023/10/30 06:16:27;;;;;;;13.67;2.20;;;11.10;99.90;;;;;;5075424;28;20226;-78
2023/10/30 06:18:52;;;;;;;6.03;1.70;;;11.10;99.90;;;;;;5075150;28;20171;-78
2023/10/30 06:21:18;;;;;;;6.80;1.77;;;11.10;99.90;;;;;;5075110;28;20167;-78
2023/10/30 06:23:44;;;;;;;7.63;1.60;;;11.10;99.90;;;;;;5075478;28;20167;-78
2023/10/30 06:26:11;;;;;;;8.70;1.73;;;11.10;99.90;;;;;;5075532;28;20211;-77
2023/10/30 06:28:38;;;;;;;9.30;1.77;;;11.10;99.90;;;;;;5075458;28;20281;-78
2023/10/30 06:31:04;;;;;;;7.10;1.67;;;11.10;99.90;;;;;;5074752;28;20162;-78
2023/10/30 06:33:33;;;;;;;8.50;1.73;;;11.10;99.90;;;;;;5074538;28;20220;-78
2023/10/30 06:36:00;;;;;;;5.63;1.80;;;11.10;99.90;;;;;;5074607;28;20575;-78
2023/10/30 06:38:26;;;;;;;10.80;2.10;;;11.10;99.90;;;;;;5074159;28;20177;-78
2023/10/30 06:40:52;;;;;;;6.83;1.73;;;11.10;99.90;;;;;;5074368;28;20274;-78
2023/10/30 06:43:18;;;;;;;6.90;1.70;;;11.10;99.90;;;;;;5074193;28;20167;-78
2023/10/30 06:45:43;;;;;;;8.77;2.20;;;11.10;99.90;;;;;;5072870;28;20194;-78
2023/10/30 06:48:09;;;;;;;9.30;2.43;;;11.10;99.90;;;;;;5074172;28;20486;-78
2023/10/30 06:50:34;;;;;;;7.63;1.50;;;11.10;99.90;;;;;;5074272;28;20519;-77
2023/10/30 06:53:00;;;;;;;7.20;1.70;;;11.00;99.90;;;;;;5074263;28;20703;-78
2023/10/30 06:55:25;;;;;;;7.20;1.90;;;11.10;99.90;;;;;;5074084;28;20269;-78
2023/10/30 06:57:51;;;;;;;7.90;1.47;;;11.10;99.90;;;;;;5074395;28;20178;-78
2023/10/30 07:00:18;;;;;;;6.60;1.70;;;11.10;99.90;;;;;;5074436;28;20265;-78
2023/10/30 07:02:44;;;;;;;9.43;2.17;;;11.10;99.90;;;;;;5073101;28;20171;-78
2023/10/30 07:05:11;;;;;;;9.27;2.23;;;11.10;99.90;;;;;;5074118;28;20195;-78
2023/10/30 07:07:36;;;;;;;8.33;1.97;;;11.10;99.90;;;;;;5074617;28;20261;-77
2023/10/30 07:10:02;;;;;;;11.17;1.77;;;11.10;99.90;;;;;;5072845;28;20171;-78
2023/10/30 07:12:28;;;;;;;6.17;1.60;;;11.10;99.90;;;;;;5074350;28;20194;-78
2023/10/30 07:14:54;;;;;;;12.83;2.37;;;11.10;99.90;;;;;;5074302;28;20750;-78
2023/10/30 07:17:19;;;;;;;7.70;1.93;;;11.10;99.90;;;;;;5074212;28;20167;-78
2023/10/30 07:19:46;;;;;;;9.67;2.60;;;11.10;99.90;;;;;;5074079;28;20209;-78
2023/10/30 07:22:12;;;;;;;10.53;2.13;;;11.10;99.90;;;;;;5072453;28;20181;-78
2023/10/30 07:24:37;;;;;;;8.37;1.90;;;11.10;99.90;;;;;;5074350;28;20188;-78
2023/10/30 07:27:03;;;;;;;7.60;1.77;;;11.10;99.90;;;;;;5073975;28;20171;-78
2023/10/30 07:29:29;;;;;;;13.37;2.30;;;11.10;99.90;;;;;;5073962;28;20187;-77
2023/10/30 07:31:55;;;;;;;11.53;2.43;;;11.10;99.90;;;;;;5074323;28;20227;-78
2023/10/30 07:34:21;;;;;;;12.60;2.00;;;11.40;99.90;;;;;;5072865;28;20216;-78
2023/10/30 07:36:47;;;;;;;7.17;1.70;;;11.20;99.90;;;;;;5073734;28;20171;-78
2023/10/30 07:39:14;;;;;;;8.30;1.73;;;11.20;99.90;;;;;;5073851;28;20198;-78
2023/10/30 07:41:39;;;;;;;10.93;2.00;;;11.20;99.90;;;;;;5073673;28;20190;-78
2023/10/30 07:44:07;;;;;;;7.33;2.00;;;11.20;99.90;;;;;;5073944;28;20643;-78
2023/10/30 07:46:33;;;;;;;10.23;2.33;;;11.20;99.90;;;;;;5073966;28;20183;-78
2023/10/30 07:49:06;;;;;;;11.30;2.30;;;11.30;99.90;;;;;;5075750;28;20198;-78
2023/10/30 07:51:32;;;;;;;7.50;2.10;;;11.30;99.90;;;;;;5076658;28;20577;-78
2023/10/30 07:53:59;;;;;;;9.20;1.80;;;11.30;99.90;;;;;;5076680;28;20171;-77
2023/10/30 07:56:24;;;;;;;10.63;2.13;;;11.30;99.90;;;;;;5077874;28;20202;-78
2023/10/30 07:58:50;;;;;;;11.37;1.97;;;11.40;99.90;;;;;;5077791;28;20662;-78
2023/10/30 08:01:19;;;;;;;10.47;1.93;;;11.40;99.90;;;;;;5078135;28;20236;-78
2023/10/30 08:03:45;;;;;;;10.63;2.17;;;11.40;99.90;;;;;;5078655;28;20163;-79
2023/10/30 08:06:10;;;;;;;12.47;2.23;;;11.50;99.90;;;;;;5078144;28;20607;-78
2023/10/30 08:08:36;;;;;;;8.60;2.17;;;11.60;99.90;;;;;;5078294;28;20242;-77
2023/10/30 08:11:02;;;;;;;8.53;2.10;;;11.50;99.90;;;;;;5077733;28;20179;-78
2023/10/30 08:13:27;;;;;;;6.60;2.10;;;11.60;99.90;;;;;;5076471;28;20269;-78
2023/10/30 08:15:53;;;;;;;13.67;2.67;;;11.60;99.90;;;;;;5077837;28;20194;-78
2023/10/30 08:18:19;;;;;;;10.87;2.33;;;11.70;99.90;;;;;;5076669;28;20178;-78
2023/10/30 08:20:45;;;;;;;6.87;2.00;;;11.70;99.90;;;;;;5078175;28;20678;-78
2023/10/30 08:23:11;;;;;;;10.70;2.47;;;11.80;99.90;;;;;;5078551;28;20179;-78
2023/10/30 08:25:37;;;;;;;6.63;2.23;;;11.90;99.90;;;;;;5078756;28;20190;-78
2023/10/30 08:28:02;;;;;;;10.10;2.37;;;11.90;99.90;;;;;;5079959;28;20546;-78
2023/10/30 08:30:29;;;;;;;7.53;1.97;;;12.00;99.90;;;;;;5077101;28;20197;-78
2023/10/30 08:32:54;;;;;;;9.37;2.43;;;12.00;99.90;;;;;;5077131;28;20167;-78
2023/10/30 08:35:20;;;;;;;7.90;2.07;;;12.00;99.90;;;;;;5077100;28;20191;-78
2023/10/30 08:37:45;;;;;;;7.83;2.20;;;12.10;99.90;;;;;;5076973;28;20220;-78
2023/10/30 08:40:12;;;;;;;7.03;1.77;;;12.20;99.90;;;;;;5076878;28;20194;-78
2023/10/30 08:42:37;;;;;;;5.67;1.83;;;12.20;99.90;;;;;;5077173;28;20245;-78
2023/10/30 08:45:05;;;;;;;5.83;1.77;;;12.30;99.90;;;;;;5077140;28;20739;-78
2023/10/30 08:47:30;;;;;;;4.43;1.70;;;12.30;99.90;;;;;;5077604;28;20167;-78
2023/10/30 08:49:56;;;;;;;9.57;2.10;;;12.40;99.90;;;;;;5077148;28;20178;-78
2023/10/30 08:52:22;;;;;;;9.07;1.90;;;12.40;99.90;;;;;;5076938;28;20546;-78
2023/10/30 08:54:47;;;;;;;8.63;2.20;;;12.50;99.90;;;;;;5075364;28;20675;-79
2023/10/30 08:57:13;;;;;;;6.43;1.50;;;12.50;99.90;;;;;;5077014;28;20190;-77
2023/10/30 08:59:40;;;;;;;8.40;1.90;;;12.60;99.90;;;;;;5075003;28;20195;-78
2023/10/30 09:02:06;;;;;;;5.00;1.80;;;12.60;99.90;;;;;;5076483;28;20235;-78
2023/10/30 09:04:33;;;;;;;6.07;1.97;;;12.70;99.90;;;;;;5076781;28;20250;-78
2023/10/30 09:06:58;;;;;;;6.07;1.80;;;12.70;99.90;;;;;;5076688;28;20189;-78
2023/10/30 09:09:24;;;;;;;10.00;2.40;;;12.80;99.90;;;;;;5076862;28;20709;-78
2023/10/30 09:11:49;;;;;;;3.53;1.90;;;12.90;99.90;;;;;;5077090;28;20229;-78
2023/10/30 09:14:15;;;;;;;9.53;1.87;;;12.90;99.90;;;;;;5076846;28;20271;-79
2023/10/30 09:16:41;;;;;;;9.70;2.00;;;12.90;99.90;;;;;;5076719;28;20202;-78
2023/10/30 09:19:06;;;;;;;7.00;2.50;;;13.00;99.90;;;;;;5076833;28;20199;-78
2023/10/30 09:21:32;;;;;;;7.10;2.27;;;13.00;99.90;;;;;;5076651;28;20662;-78
2023/10/30 09:23:57;;;;;;;5.83;2.00;;;13.00;99.90;;;;;;5077168;28;20167;-78
2023/10/30 09:26:23;;;;;;;4.07;2.00;;;13.00;99.90;;;;;;5076396;28;20248;-78
2023/10/30 09:28:48;;;;;;;7.87;1.93;;;13.10;99.90;;;;;;5076639;28;20210;-78
2023/10/30 09:31:14;;;;;;;8.43;2.07;;;13.10;99.90;;;;;;5076839;28;20171;-78
2023/10/30 09:33:39;;;;;;;5.97;1.73;;;13.10;99.90;;;;;;5076987;28;20639;-79
2023/10/30 09:36:06;;;;;;;6.97;1.80;;;13.20;99.90;;;;;;5075708;28;20205;-78
2023/10/30 09:38:31;;;;;;;5.43;1.87;;;13.20;99.90;;;;;;5089661;28;20179;-78
2023/10/30 09:41:04;;;;;;;7.07;1.97;;;13.20;99.90;;;;;;5086441;28;20260;-78
2023/10/30 09:43:30;;;;;;;4.80;1.60;;;13.30;99.90;;;;;;5076248;28;20163;-78
2023/10/30 09:46:00;;;;;;;5.57;2.07;;;13.30;99.90;;;;;;5076209;28;20199;-78
2023/10/30 09:48:28;;;;;;;4.70;1.80;;;13.30;99.90;;;;;;5076619;28;20220;-79
2023/10/30 09:50:54;;;;;;;3.40;1.40;;;13.40;99.90;;;;;;5074961;28;20261;-78
2023/10/30 09:53:20;;;;;;;7.07;1.50;;;13.40;99.90;;;;;;5074751;28;20262;-79
2023/10/30 09:55:47;;;;;;;6.20;2.27;;;13.40;99.90;;;;;;5075832;28;20532;-78
2023/10/30 09:58:13;;;;;;;6.07;1.80;;;13.40;99.90;;;;;;5075718;28;20705;-78
2023/10/30 10:00:39;;;;;;;6.43;1.97;;;13.50;99.90;;;;;;5076156;28;20198;-78
2023/10/30 10:03:07;;;;;;;3.33;1.43;;;13.50;99.90;;;;;;5075903;28;20171;-78
2023/10/30 10:05:33;;;;;;;7.07;1.67;;;13.60;99.90;;;;;;5075724;28;20191;-79
2023/10/30 10:07:58;;;;;;;5.70;1.70;;;13.60;99.90;;;;;;5074457;28;20174;-77
2023/10/30 10:10:24;;;;;;;5.10;1.53;;;13.60;99.90;;;;;;5075934;28;20204;-79
2023/10/30 10:12:50;;;;;;;4.63;1.50;;;13.70;99.90;;;;;;5073620;28;20181;-79
2023/10/30 10:15:20;;;;;;;5.27;1.50;;;13.70;99.90;;;;;;5075591;28;20199;-77
2023/10/30 10:17:46;;;;;;;5.57;1.70;;;13.70;99.90;;;;;;5073677;28;20174;-77
2023/10/30 10:20:12;;;;;;;3.97;1.40;;;13.80;99.90;;;;;;5075567;28;20209;-78
2023/10/30 10:22:38;;;;;;;5.80;1.63;;;13.80;99.90;;;;;;5075561;28;20163;-78
2023/10/30 10:25:08;;;;;;;7.33;1.37;;;13.70;99.90;;;;;;5075809;28;20749;-78
2023/10/30 10:27:34;;;;;;;5.57;1.73;;;13.90;99.90;;;;;;5075279;28;20679;-79
2023/10/30 10:29:59;;;;;;;3.93;1.50;;;13.90;99.90;;;;;;5075693;28;20178;-78
2023/10/30 10:32:26;;;;;;;3.73;1.50;;;14.00;99.90;;;;;;5075556;28;20181;-78
2023/10/30 10:35:02;;;;;;;4.37;1.20;;;13.90;99.90;;;;;;5073770;28;20264;-78
2023/10/30 10:37:29;;;;;;;4.30;1.77;;;14.00;99.90;;;;;;5075361;28;20253;-79
2023/10/30 10:39:55;;;;;;;5.27;1.70;;;14.10;99.90;;;;;;5075382;28;20191;-79
2023/10/30 10:42:23;;;;;;;5.20;1.63;;;14.10;99.90;;;;;;5073801;28;20179;-79
2023/10/30 10:44:51;;;;;;;4.30;1.47;;;14.10;99.90;;;;;;5075132;28;20187;-79
2023/10/30 10:47:18;;;;;;;5.20;1.47;;;14.10;99.90;;;;;;5072775;28;20686;-78
2023/10/30 10:49:44;;;;;;;5.77;1.50;;;14.30;99.90;;;;;;5073945;28;20198;-78
2023/10/30 10:52:18;;;;;;;4.87;1.60;;;14.30;99.90;;;;;;5074418;28;20630;-78
2023/10/30 10:54:53;;;;;;;3.63;1.40;;;14.30;99.90;;;;;;5074283;28;20586;-78
2023/10/30 10:57:20;;;;;;;6.17;1.77;;;14.40;99.90;;;;;;5074088;28;20181;-78
2023/10/30 10:59:47;;;;;;;4.73;1.40;;;14.50;99.90;;;;;;5074021;28;20627;-78
2023/10/30 11:02:21;;;;;;;4.43;1.63;;;14.50;99.90;;;;;;5074188;28;20182;-78
2023/10/30 11:04:51;;;;;;;4.17;1.50;;;14.60;99.90;;;;;;5074274;28;20286;-78
2023/10/30 11:07:26;;;;;;;4.00;1.30;;;14.70;99.90;;;;;;5074717;28;20178;-78
2023/10/30 11:09:57;;;;;;;1.93;1.10;;;14.70;99.90;;;;;;5074325;28;20178;-78
2023/10/30 11:12:31;;;;;;;3.47;1.30;;;14.80;99.90;;;;;;5074325;28;20174;-78
2023/10/30 11:15:12;;;;;;;4.03;1.20;;;14.80;99.90;;;;;;5075746;28;20190;-78
2023/10/30 11:17:38;;;;;;;3.20;1.20;;;14.90;99.90;;;;;;5074129;28;20159;-77
2023/10/30 11:20:08;;;;;;;3.13;1.20;;;14.90;99.90;;;;;;5073562;28;20197;-78
2023/10/30 11:22:40;;;;;;;2.10;1.00;;;14.90;99.90;;;;;;5073545;28;20175;-78
2023/10/30 11:25:26;;;;;;;3.23;1.20;;;14.90;99.90;;;;;;5073098;28;20191;-78
2023/10/30 11:27:52;;;;;;;7.43;1.33;;;14.90;99.90;;;;;;5073717;28;20720;-77
2023/10/30 11:30:22;;;;;;;3.77;1.10;;;14.80;99.90;;;;;;5074062;28;20186;-78
2023/10/30 11:32:48;;;;;;;3.43;1.13;;;14.90;99.90;;;;;;5073862;28;20627;-78
2023/10/30 11:35:13;;;;;;;6.00;1.20;;;14.90;99.90;;;;;;5073260;28;20195;-78
2023/10/30 11:37:40;;;;;;;3.83;1.20;;;14.90;99.90;;;;;;5073382;28;20221;-78
2023/10/30 11:40:09;;;;;;;2.57;1.20;;;14.90;99.90;;;;;;5072314;28;20202;-78
2023/10/30 11:42:40;;;;;;;4.63;1.00;;;14.90;99.90;;;;;;5073562;28;20167;-78
2023/10/30 11:45:26;;;;;;;5.00;1.43;;;14.90;99.90;;;;;;5075465;28;20274;-78
2023/10/30 11:47:59;;;;;;;3.37;1.20;;;14.90;99.90;;;;;;5078909;28;20313;-78
2023/10/30 11:50:29;;;;;;;4.80;1.77;;;14.80;99.90;;;;;;5080040;28;20658;-78
2023/10/30 11:52:58;;;;;;;4.53;1.20;;;14.80;99.90;;;;;;5084710;28;20232;-78
2023/10/30 11:55:24;;;;;;;4.23;1.20;;;14.80;99.90;;;;;;5076326;28;20290;-79
2023/10/30 11:57:51;;;;;;;1.63;1.10;;;14.80;99.90;;;;;;5073410;28;20186;-78
2023/10/30 12:00:16;;;;;;;2.20;1.20;;;14.70;99.90;;;;;;5073241;28;20190;-78
2023/10/30 12:02:44;;;;;;;4.30;1.53;;;14.70;99.90;;;;;;5073139;28;20170;-78
2023/10/30 12:05:11;;;;;;;1.77;0.90;;;14.70;99.90;;;;;;5073076;28;20195;-78
2023/10/30 12:07:38;;;;;;;2.80;1.03;;;14.70;99.90;;;;;;5073078;28;20666;-78
2023/10/30 12:10:04;;;;;;;3.90;1.10;;;14.80;99.90;;;;;;5071735;28;20248;-78
2023/10/30 12:12:31;;;;;;;2.70;0.97;;;14.80;99.90;;;;;;5072968;28;20654;-78
2023/10/30 12:14:58;;;;;;;1.93;1.07;;;14.90;99.90;;;;;;5072657;28;20191;-77
2023/10/30 12:17:24;;;;;;;3.70;1.17;;;15.00;99.90;;;;;;5072870;28;20584;-78
2023/10/30 12:19:49;;;;;;;2.70;1.17;;;14.80;99.90;;;;;;5073222;28;20277;-78
2023/10/30 12:22:15;;;;;;;1.90;1.40;;;14.90;99.90;;;;;;5073012;28;20784;-78
2023/10/30 12:24:42;;;;;;;3.90;1.20;;;14.80;99.90;;;;;;5073134;28;20601;-78
2023/10/30 12:27:08;;;;;;;4.00;1.30;;;14.80;99.90;;;;;;5071542;28;20182;-78
2023/10/30 12:29:34;;;;;;;3.57;1.10;;;14.80;99.90;;;;;;5072766;28;20546;-78
2023/10/30 12:32:07;;;;;;;4.07;1.20;;;14.80;99.90;;;;;;5073132;28;20182;-78
2023/10/30 12:34:36;;;;;;;2.23;1.33;;;14.80;99.90;;;;;;5072604;28;20201;-77
2023/10/30 12:37:24;;;;;;;4.63;1.67;;;14.80;99.90;;;;;;5076268;28;20186;-78
2023/10/30 12:40:04;;;;;;;5.27;1.30;;;14.70;99.90;;;;;;5076218;28;20678;-78